Time;durP1;ratioP1;P1;durP2;ratioP2;P2;SDS_P1;SDS_P2;PMS_P1;PMS_P2;Temp;Humidity;BMP_temperature;BMP_pressure;BME280_temperature;BME280_humidity;BME280_pressure;Samples;Min_cycle;Max_cycle;Signal;HPM_P1;HPM_P2
2022/11/24 00:01:37;;;;;;;290.55;65.20;;;;;;;3.80;100.00;96615.22;10255514;28;20050;-57
2022/11/24 00:06:36;;;;;;;185.45;62.17;;;;;;;3.68;100.00;96625.38;10255819;28;20042;-57
2022/11/24 00:11:36;;;;;;;179.23;60.35;;;;;;;3.60;100.00;96633.03;10256220;28;20070;-57
2022/11/24 00:16:37;;;;;;;189.73;61.33;;;;;;;3.49;100.00;96623.50;10255689;28;20074;-57
2022/11/24 00:21:37;;;;;;;182.88;67.07;;;;;;;3.42;100.00;96636.31;10255021;28;20066;-57
2022/11/24 00:26:37;;;;;;;205.85;67.07;;;;;;;3.36;100.00;96625.97;10255232;28;20519;-57
2022/11/24 00:31:38;;;;;;;134.35;54.83;;;;;;;3.35;100.00;96637.06;10255622;28;20084;-57
2022/11/24 00:36:38;;;;;;;140.73;59.78;;;;;;;3.39;100.00;96631.13;10254502;28;20073;-56
2022/11/24 00:41:37;;;;;;;157.82;65.85;;;;;;;3.38;100.00;96634.56;10254694;28;20073;-57
2022/11/24 00:46:36;;;;;;;201.05;84.15;;;;;;;3.39;100.00;96633.69;10254906;28;20069;-57
2022/11/24 00:51:35;;;;;;;141.73;53.80;;;;;;;3.35;100.00;96621.69;10254533;28;20077;-57
2022/11/24 00:56:34;;;;;;;122.13;44.33;;;;;;;3.01;100.00;96616.25;10253979;28;20070;-56
2022/11/24 01:01:34;;;;;;;107.72;30.48;;;;;;;2.66;100.00;96638.06;10253765;28;20084;-57
2022/11/24 01:06:34;;;;;;;136.68;30.65;;;;;;;2.35;100.00;96665.84;10252363;28;20468;-58
2022/11/24 01:16:53;;;;;;;122.43;28.55;;;;;;;2.31;100.00;96652.13;10254101;28;20066;-55
2022/11/24 01:21:52;;;;;;;193.10;33.35;;;;;;;2.38;100.00;96648.81;10254035;28;20503;-55
2022/11/24 01:26:51;;;;;;;209.93;33.72;;;;;;;2.46;100.00;96658.28;10253849;28;20081;-55
2022/11/24 01:31:50;;;;;;;124.25;31.38;;;;;;;2.51;100.00;96649.84;10252929;28;20038;-57
2022/11/24 01:36:49;;;;;;;206.07;44.67;;;;;;;2.57;100.00;96649.91;10252074;28;20070;-56
2022/11/24 01:41:48;;;;;;;175.00;36.67;;;;;;;2.43;100.00;96653.13;10252475;28;20046;-56
2022/11/24 01:46:51;;;;;;;146.75;36.38;;;;;;;2.25;100.00;96651.19;10253005;28;20034;-57
2022/11/24 01:51:56;;;;;;;113.95;35.75;;;;;;;2.15;100.00;96661.28;10252214;28;20074;-57
2022/11/24 01:57:09;;;;;;;134.13;31.83;;;;;;;2.25;100.00;96639.22;10251680;28;20065;-55
2022/11/24 02:02:08;;;;;;;76.75;30.02;;;;;;;2.33;100.00;96650.44;10251608;28;20092;-56
2022/11/24 02:07:07;;;;;;;153.95;45.08;;;;;;;2.38;100.00;96642.84;10251491;28;20081;-56
2022/11/24 02:12:07;;;;;;;93.82;35.15;;;;;;;2.40;100.00;96645.44;10251637;28;20607;-56
2022/11/24 02:17:07;;;;;;;114.15;43.15;;;;;;;2.43;100.00;96655.69;10251944;28;20078;-56
2022/11/24 02:22:27;;;;;;;97.43;37.92;;;;;;;2.48;100.00;96647.22;10251363;28;20082;-56
2022/11/24 02:27:26;;;;;;;121.50;41.95;;;;;;;2.59;100.00;96658.47;10251344;28;20070;-56
2022/11/24 02:32:27;;;;;;;85.25;35.65;;;;;;;2.68;100.00;96665.41;10251423;28;20070;-56
2022/11/24 02:37:26;;;;;;;95.00;38.25;;;;;;;2.71;100.00;96667.16;10250613;28;20074;-56
2022/11/24 02:42:29;;;;;;;142.45;43.65;;;;;;;2.69;100.00;96653.47;10250403;28;20093;-57
2022/11/24 02:47:28;;;;;;;91.03;37.15;;;;;;;2.61;100.00;96665.31;10250094;28;20455;-57
2022/11/24 02:52:27;;;;;;;103.53;37.53;;;;;;;2.36;100.00;96659.88;10249941;28;20062;-57
2022/11/24 02:57:26;;;;;;;;;;;;;;;2.14;100.00;96661.28;10250654;28;20437;-57
2022/11/24 03:02:25;;;;;;;99.43;39.03;;;;;;;2.01;100.00;96657.66;10249811;28;20383;-57
2022/11/24 03:07:24;;;;;;;83.85;39.72;;;;;;;2.15;100.00;96681.75;10250095;28;20085;-57
2022/11/24 03:12:23;;;;;;;96.20;44.85;;;;;;;2.19;100.00;96671.59;10250145;28;20066;-56
2022/11/24 03:17:22;;;;;;;59.75;30.92;;;;;;;2.32;100.00;96678.59;10249995;28;20038;-56
2022/11/24 03:22:21;;;;;;;59.67;30.05;;;;;;;2.45;100.00;96683.03;10249778;28;20093;-57
2022/11/24 03:27:20;;;;;;;69.78;35.03;;;;;;;2.42;100.00;96694.94;10250132;28;20515;-57
2022/11/24 03:32:19;;;;;;;52.53;25.83;;;;;;;2.30;100.00;96690.50;10249467;28;20046;-56
2022/11/24 03:37:18;;;;;;;40.95;21.58;;;;;;;2.37;100.00;96697.41;10249444;28;20042;-56
2022/11/24 03:42:17;;;;;;;41.83;20.70;;;;;;;2.38;100.00;96687.22;10249775;28;20100;-56
2022/11/24 03:47:16;;;;;;;37.03;19.63;;;;;;;2.47;100.00;96693.31;10249430;28;20022;-56
2022/11/24 03:52:15;;;;;;;43.03;21.80;;;;;;;2.56;100.00;96709.66;10248911;28;20077;-57
2022/11/24 03:57:14;;;;;;;41.22;22.55;;;;;;;2.65;100.00;96697.78;10248718;28;20034;-57
2022/11/24 04:02:13;;;;;;;50.08;26.70;;;;;;;2.66;100.00;96695.28;10254170;28;20086;-57
2022/11/24 04:07:12;;;;;;;42.13;23.05;;;;;;;2.69;100.00;96714.94;10256115;28;20097;-55
2022/11/24 04:17:29;;;;;;;39.22;20.33;;;;;;;2.17;100.00;96723.59;10255443;28;20073;-56
2022/11/24 04:22:28;;;;;;;47.53;24.58;;;;;;;2.00;100.00;96727.59;10255831;28;20531;-56
2022/11/24 04:27:27;;;;;;;40.33;22.73;;;;;;;1.81;100.00;96716.22;10255398;28;20078;-56
2022/11/24 04:32:27;;;;;;;42.03;22.80;;;;;;;1.82;100.00;96723.03;10255778;28;20073;-56
2022/11/24 04:37:26;;;;;;;39.75;23.50;;;;;;;2.02;100.00;96730.16;10254814;28;20066;-56
2022/11/24 04:42:25;;;;;;;38.17;21.77;;;;;;;2.20;100.00;96739.84;10254705;28;20479;-56
2022/11/24 04:47:25;;;;;;;36.53;21.60;;;;;;;2.28;100.00;96738.28;10239351;28;20821;-56
2022/11/24 04:52:25;;;;;;;32.45;19.92;;;;;;;2.38;100.00;96745.25;10253273;28;20769;-56
2022/11/24 04:57:25;;;;;;;36.38;22.15;;;;;;;2.43;100.00;96740.19;10252379;28;20080;-56
2022/11/24 05:02:24;;;;;;;32.20;20.17;;;;;;;2.48;100.00;96759.03;10252753;28;20088;-56
2022/11/24 05:07:23;;;;;;;34.60;21.70;;;;;;;2.49;100.00;96769.31;10253227;28;20034;-56
2022/11/24 05:12:23;;;;;;;36.28;22.05;;;;;;;2.44;100.00;96773.50;10253233;28;20042;-56
2022/11/24 05:17:22;;;;;;;37.08;21.98;;;;;;;2.56;100.00;96791.59;10251956;28;20073;-56
2022/11/24 05:22:21;;;;;;;39.58;24.23;;;;;;;2.56;100.00;96817.22;10251686;28;20038;-56
2022/11/24 05:27:20;;;;;;;44.58;24.52;;;;;;;2.70;100.00;96824.22;10252022;28;20042;-56
2022/11/24 05:32:19;;;;;;;42.60;26.58;;;;;;;2.80;100.00;96826.09;10251794;28;20069;-56
2022/11/24 05:37:18;;;;;;;45.50;25.88;;;;;;;2.93;100.00;96848.50;10250677;28;20041;-57
2022/11/24 05:47:35;;;;;;;51.17;30.88;;;;;;;3.31;100.00;96844.72;10251331;28;20068;-57
2022/11/24 05:52:34;;;;;;;54.60;33.92;;;;;;;3.55;100.00;96865.56;10249532;28;20106;-57
2022/11/24 05:57:33;;;;;;;;;;;;;;;3.80;100.00;96871.84;10251068;28;20096;-57
2022/11/24 06:02:32;;;;;;;69.40;36.90;;;;;;;4.08;100.00;96872.13;10249701;28;20440;-57
2022/11/24 06:07:31;;;;;;;75.57;42.33;;;;;;;4.38;100.00;96896.38;10250166;28;20502;-57
2022/11/24 06:12:30;;;;;;;73.28;40.67;;;;;;;4.63;100.00;96903.47;10251788;28;20147;-57
2022/11/24 06:17:29;;;;;;;70.18;41.20;;;;;;;4.65;100.00;96908.63;10251644;28;20620;-58
2022/11/24 06:22:29;;;;;;;67.30;40.05;;;;;;;4.79;100.00;96913.88;10250293;28;20149;-57
2022/11/24 06:27:28;;;;;;;64.35;36.67;;;;;;;4.98;100.00;96928.63;10249810;28;20056;-57
2022/11/24 06:32:27;;;;;;;87.78;52.78;;;;;;;5.01;100.00;96936.34;10247211;28;20489;-57
2022/11/24 06:37:26;;;;;;;75.82;47.42;;;;;;;4.86;99.33;96951.63;10245510;28;20383;-57
2022/11/24 06:42:25;;;;;;;73.63;44.60;;;;;;;4.84;99.10;96961.91;10246251;28;20501;-57
2022/11/24 06:47:23;;;;;;;69.53;43.33;;;;;;;5.03;98.80;96965.50;10250398;28;20450;-57
2022/11/24 06:52:22;;;;;;;70.72;38.72;;;;;;;5.22;98.84;96973.38;10250777;28;20563;-57
2022/11/24 06:57:21;;;;;;;60.15;37.25;;;;;;;5.36;98.48;96979.47;10250377;28;20030;-57
2022/11/24 07:02:20;;;;;;;62.28;37.05;;;;;;;5.53;98.45;96980.47;10250235;28;20101;-57
2022/11/24 07:07:19;;;;;;;68.25;40.80;;;;;;;5.69;97.99;96988.28;10249454;28;20415;-57
2022/11/24 07:12:18;;;;;;;78.20;43.40;;;;;;;5.82;97.97;97002.94;10249781;28;20110;-57
2022/11/24 07:17:17;;;;;;;69.45;42.22;;;;;;;5.90;98.25;97006.41;10249885;28;20114;-57
2022/11/24 07:22:16;;;;;;;65.53;41.72;;;;;;;6.07;97.43;97010.78;10249410;28;20041;-57
2022/11/24 07:27:15;;;;;;;84.68;52.22;;;;;;;6.07;97.77;97014.25;10249877;28;20066;-57
2022/11/24 07:32:14;;;;;;;76.00;48.42;;;;;;;6.09;97.17;97017.66;10242754;28;20031;-57
2022/11/24 07:37:13;;;;;;;;;;;;;;;6.21;97.65;97016.88;10252382;28;20074;-57
2022/11/24 07:42:12;;;;;;;68.53;41.70;;;;;;;6.20;96.80;97020.28;10254498;28;20302;-57
2022/11/24 07:47:11;;;;;;;65.22;42.80;;;;;;;6.24;97.48;97026.34;10256536;28;20113;-59
2022/11/24 07:52:10;;;;;;;57.03;32.05;;;;;;;6.25;97.24;97025.47;10256959;28;20073;-57
2022/11/24 07:57:09;;;;;;;36.85;25.27;;;;;;;6.21;97.19;97032.34;10257386;28;20098;-58
2022/11/24 08:02:11;;;;;;;54.53;33.75;;;;;;;6.35;96.89;97038.41;10256568;28;20041;-57
2022/11/24 08:07:10;;;;;;;47.60;29.48;;;;;;;6.50;97.15;97036.75;10257148;28;20073;-57
2022/11/24 08:12:09;;;;;;;56.45;37.25;;;;;;;6.51;96.42;97041.03;10256382;28;20471;-57
2022/11/24 08:17:07;;;;;;;57.78;34.90;;;;;;;6.23;96.74;97058.94;10256565;28;20040;-57
2022/11/24 08:22:07;;;;;;;53.50;32.17;;;;;;;6.05;96.55;97066.59;10255518;28;20033;-57
2022/11/24 08:27:06;;;;;;;43.88;29.65;;;;;;;6.07;97.11;97062.28;10256284;28;20088;-57
2022/11/24 08:32:05;;;;;;;48.10;29.85;;;;;;;6.08;96.92;97061.44;10254309;28;20093;-57
2022/11/24 08:37:04;;;;;;;50.95;33.92;;;;;;;6.16;96.49;97067.50;10255683;28;20069;-57
2022/11/24 08:42:03;;;;;;;48.38;30.45;;;;;;;6.07;96.09;97067.44;10254903;28;20058;-57
2022/11/24 08:47:03;;;;;;;66.53;37.47;;;;;;;6.06;96.51;97076.03;10254994;28;20034;-58
2022/11/24 08:52:01;;;;;;;;;;;;;;;6.13;95.45;97070.91;10255862;28;20072;-55
2022/11/24 08:57:00;;;;;;;51.20;27.10;;;;;;;6.28;96.30;97075.31;10255122;28;19910;-55
2022/11/24 09:01:59;;;;;;;51.78;31.05;;;;;;;6.31;95.49;97056.41;10254809;28;20448;-58
2022/11/24 09:06:58;;;;;;;46.92;28.38;;;;;;;6.36;95.05;97071.03;10254572;28;20098;-56
2022/11/24 09:11:57;;;;;;;40.88;22.42;;;;;;;6.13;96.35;97082.94;10254101;28;20032;-56
2022/11/24 09:16:56;;;;;;;37.67;23.25;;;;;;;6.19;96.39;97077.84;10254622;28;20038;-56
2022/11/24 09:21:55;;;;;;;40.08;22.58;;;;;;;6.25;97.79;97075.28;10253854;28;20033;-56
2022/11/24 09:26:55;;;;;;;40.17;22.83;;;;;;;6.40;97.32;97066.78;10253892;28;20121;-56
2022/11/24 09:31:54;;;;;;;38.58;23.00;;;;;;;6.68;96.72;97061.69;10255114;28;20070;-56
2022/11/24 09:36:53;;;;;;;38.33;26.05;;;;;;;6.95;96.58;97042.88;10254763;28;20032;-56
2022/11/24 09:42:04;;;;;;;56.40;36.08;;;;;;;7.24;96.21;97048.03;10255109;28;20913;-56
2022/11/24 09:47:27;;;;;;;48.35;31.15;;;;;;;7.44;95.05;97054.13;10254962;28;20077;-56
2022/11/24 09:52:44;;;;;;;52.72;31.60;;;;;;;7.53;93.66;97047.25;10247593;28;20058;-56
2022/11/24 09:57:45;;;;;;;41.28;24.40;;;;;;;7.48;93.90;97036.94;10251082;28;20076;-56
2022/11/24 10:02:47;;;;;;;37.33;23.90;;;;;;;7.60;92.97;97043.81;10254129;28;20078;-56
2022/11/24 10:08:19;;;;;;;56.42;34.17;;;;;;;7.54;92.41;97049.81;10254005;28;20066;-56
2022/11/24 10:13:31;;;;;;;31.27;18.90;;;;;;;7.29;92.48;97043.78;10242781;28;20069;-57
2022/11/24 10:18:44;;;;;;;31.40;19.20;;;;;;;7.03;94.08;97042.03;10250768;28;20086;-58
2022/11/24 10:23:49;;;;;;;35.33;20.25;;;;;;;7.03;94.26;97039.44;10251919;28;20500;-58
2022/11/24 10:28:53;;;;;;;32.08;18.48;;;;;;;7.05;94.69;97036.84;10248197;28;20468;-57
2022/11/24 10:33:52;;;;;;;31.15;19.52;;;;;;;6.95;95.12;97051.47;10248235;28;20480;-57
2022/11/24 10:39:14;;;;;;;38.67;21.80;;;;;;;7.06;95.48;97050.63;10247779;28;20506;-57
2022/11/24 10:44:14;;;;;;;35.20;21.40;;;;;;;7.06;94.68;97055.78;10246381;28;20081;-57
2022/11/24 10:49:32;;;;;;;38.20;22.65;;;;;;;7.29;94.32;97045.47;10250584;28;20065;-56
2022/11/24 10:54:32;;;;;;;39.55;24.23;;;;;;;7.49;94.80;97053.25;10250220;28;20061;-57
2022/11/24 10:59:38;;;;;;;41.97;25.58;;;;;;;7.71;93.50;97048.94;10250221;28;20070;-57
2022/11/24 11:04:37;;;;;;;72.28;43.45;;;;;;;7.82;92.81;97053.22;10247888;28;20086;-57
2022/11/24 11:09:36;;;;;;;38.88;23.40;;;;;;;7.69;91.54;97051.53;10255846;28;20022;-57
2022/11/24 11:14:35;;;;;;;33.95;21.60;;;;;;;7.70;91.23;97062.72;10263386;28;20061;-57
2022/11/24 11:19:42;;;;;;;35.08;20.80;;;;;;;7.64;91.21;97054.13;10263801;28;20550;-57
2022/11/24 11:24:45;;;;;;;31.60;20.33;;;;;;;7.76;91.34;97050.66;10263304;28;20467;-58
2022/11/24 11:29:44;;;;;;;32.90;20.02;;;;;;;7.61;91.48;97054.09;10262891;28;20061;-57
2022/11/24 11:34:43;;;;;;;;;;;;;;;7.53;91.92;97055.00;10263386;28;20065;-57
2022/11/24 11:39:45;;;;;;;38.35;18.60;;;;;;;7.44;91.61;97050.69;10263113;28;19932;-57
2022/11/24 11:45:04;;;;;;;52.65;31.98;;;;;;;7.56;91.79;97058.41;10262511;28;20069;-57
2022/11/24 11:50:14;;;;;;;40.80;26.85;;;;;;;7.60;91.51;97049.81;10262787;28;20515;-57
2022/11/24 11:55:21;;;;;;;26.77;14.73;;;;;;;7.62;91.24;97055.84;10262688;28;20070;-57
2022/11/24 12:00:21;;;;;;;25.05;15.27;;;;;;;7.65;90.93;97049.81;10261378;28;20086;-57
2022/11/24 12:05:45;;;;;;;24.92;15.43;;;;;;;7.99;90.63;97060.97;10259289;28;20086;-57
2022/11/24 12:11:13;;;;;;;24.45;14.93;;;;;;;8.26;89.63;97065.19;10262371;28;20074;-57
2022/11/24 12:16:29;;;;;;;20.27;11.50;;;;;;;8.25;87.87;97065.22;10261915;28;20515;-57
2022/11/24 12:22:06;;;;;;;19.02;12.13;;;;;;;8.15;87.36;97068.66;10258251;28;20074;-57
2022/11/24 12:27:46;;;;;;;41.30;26.05;;;;;;;8.41;87.79;97063.41;10256554;28;20074;-57
2022/11/24 12:33:12;;;;;;;25.95;15.55;;;;;;;8.64;87.14;97053.84;10247192;28;20081;-57
2022/11/24 12:38:14;;;;;;;23.05;12.93;;;;;;;8.66;85.79;97053.84;10255509;28;20076;-57
2022/11/24 12:43:37;;;;;;;22.65;13.18;;;;;;;8.76;85.77;97050.34;10255343;28;20085;-57
2022/11/24 12:49:05;;;;;;;20.27;13.35;;;;;;;8.88;84.83;97058.06;10247728;28;20487;-57
2022/11/24 12:54:11;;;;;;;17.30;11.95;;;;;;;9.12;84.35;97053.59;10254885;28;20507;-57
2022/11/24 12:59:16;;;;;;;15.77;10.88;;;;;;;9.01;82.49;97042.44;10255377;28;20088;-57
2022/11/24 13:04:26;;;;;;;17.20;11.18;;;;;;;9.03;82.40;97051.06;10254578;28;20089;-57
2022/11/24 13:09:25;;;;;;;18.77;12.82;;;;;;;8.97;82.45;97053.69;10254542;28;20077;-57
2022/11/24 13:14:34;;;;;;;71.28;30.75;;;;;;;8.89;82.22;97061.50;10254171;28;20032;-57
2022/11/24 13:19:35;;;;;;;27.40;19.10;;;;;;;8.54;83.76;97072.00;10254672;28;20070;-57
2022/11/24 13:24:38;;;;;;;17.83;12.95;;;;;;;8.17;85.62;97075.56;10255511;28;20465;-57
2022/11/24 13:29:39;;;;;;;28.88;17.75;;;;;;;7.85;86.90;97080.81;10255133;28;20089;-57
2022/11/24 13:34:38;;;;;;;28.50;19.17;;;;;;;7.90;87.27;97084.25;10254039;28;20072;-57
2022/11/24 13:39:52;;;;;;;27.27;17.65;;;;;;;7.83;87.77;97101.47;10255343;28;20527;-58
2022/11/24 13:44:55;;;;;;;22.30;13.77;;;;;;;7.53;89.52;97107.47;10254988;28;20085;-57
2022/11/24 13:49:54;;;;;;;23.58;16.00;;;;;;;7.49;89.63;97113.50;10254486;28;20122;-57
2022/11/24 13:54:53;;;;;;;28.17;16.60;;;;;;;7.36;89.54;97114.34;10254054;28;20084;-59
2022/11/24 13:59:59;;;;;;;24.13;14.85;;;;;;;7.13;89.09;97119.44;10253680;28;20034;-57
2022/11/24 14:04:58;;;;;;;22.13;13.75;;;;;;;7.10;87.11;97120.31;10253840;28;20070;-57
2022/11/24 14:09:57;;;;;;;226.85;122.55;;;;;;;7.09;87.55;97120.28;10253540;28;20038;-58
2022/11/24 14:15:22;;;;;;;31.48;18.88;;;;;;;7.28;86.52;97131.50;10253458;28;20039;-58
2022/11/24 14:20:24;;;;;;;77.93;42.67;;;;;;;7.24;85.50;97131.50;10253162;28;20080;-58
2022/11/24 14:25:31;;;;;;;18.27;12.18;;;;;;;7.23;84.53;97137.50;10252631;28;20836;-56
2022/11/24 14:30:30;;;;;;;17.83;11.32;;;;;;;7.12;83.91;97134.03;10252378;28;20077;-56
2022/11/24 14:35:31;;;;;;;31.10;19.98;;;;;;;7.01;84.61;97138.34;10252602;28;20046;-56
2022/11/24 14:40:48;;;;;;;29.88;19.13;;;;;;;6.99;84.53;97152.94;10249663;28;20070;-56
2022/11/24 14:45:58;;;;;;;32.50;18.67;;;;;;;6.84;84.36;97156.31;10248733;28;20085;-57
2022/11/24 14:51:05;;;;;;;29.23;16.83;;;;;;;6.88;83.02;97155.47;10250757;28;20080;-56
2022/11/24 14:56:24;;;;;;;26.63;17.73;;;;;;;6.78;82.73;97158.88;10250807;28;20058;-58
2022/11/24 15:01:26;;;;;;;102.70;47.70;;;;;;;6.87;82.76;97170.97;10251106;28;20574;-56
2022/11/24 15:06:25;;;;;;;24.25;14.40;;;;;;;6.93;82.36;97160.66;10250705;28;20081;-56
2022/11/24 15:11:24;;;;;;;33.58;19.27;;;;;;;6.94;81.49;97163.25;10251435;28;20027;-57
2022/11/24 15:16:26;;;;;;;18.08;10.07;;;;;;;6.97;80.46;97167.53;10251252;28;20093;-57
2022/11/24 15:21:36;;;;;;;24.42;15.20;;;;;;;6.95;80.73;97157.22;10251807;28;20074;-58
2022/11/24 15:26:35;;;;;;;31.27;21.90;;;;;;;7.06;81.28;97165.00;10250769;28;20073;-57
2022/11/24 15:31:33;;;;;;;30.90;22.08;;;;;;;7.17;80.55;97171.06;10251128;28;20117;-57
2022/11/24 15:36:32;;;;;;;32.42;22.55;;;;;;;7.22;80.25;97182.25;10249946;28;20725;-57
2022/11/24 15:41:32;;;;;;;34.40;22.23;;;;;;;7.27;80.45;97181.41;10250429;28;20041;-57
2022/11/24 15:46:36;;;;;;;35.67;23.98;;;;;;;7.29;80.31;97192.56;10250919;28;20081;-58
2022/11/24 15:51:41;;;;;;;52.75;32.30;;;;;;;7.30;80.50;97194.31;10250915;28;20465;-57
2022/11/24 15:56:40;;;;;;;60.05;31.98;;;;;;;7.25;81.23;97194.31;10253459;28;20073;-57
2022/11/24 16:01:41;;;;;;;66.95;38.80;;;;;;;7.25;81.34;97189.13;10256656;28;20476;-57
2022/11/24 16:06:40;;;;;;;75.47;47.55;;;;;;;7.22;81.45;97194.31;10257339;28;20073;-57
2022/11/24 16:11:39;;;;;;;64.95;44.20;;;;;;;7.13;80.66;97194.28;10257940;28;20050;-57
2022/11/24 16:16:39;;;;;;;79.82;49.05;;;;;;;7.04;81.07;97183.03;10258157;28;20050;-57
2022/11/24 16:21:38;;;;;;;114.72;68.65;;;;;;;6.89;81.04;97180.41;10256706;28;20070;-57
2022/11/24 16:26:37;;;;;;;70.28;43.78;;;;;;;6.71;80.85;97186.34;10256306;28;20070;-56
2022/11/24 16:31:36;;;;;;;66.82;43.15;;;;;;;6.66;81.56;97195.78;10255291;28;20404;-56
2022/11/24 16:36:35;;;;;;;91.72;60.13;;;;;;;6.53;81.80;97186.25;10255331;28;20493;-56
2022/11/24 16:41:34;;;;;;;95.57;65.38;;;;;;;6.48;82.55;97190.50;10253419;28;20612;-56
2022/11/24 16:46:33;;;;;;;128.50;87.82;;;;;;;6.43;83.29;97189.63;10254478;28;20034;-56
2022/11/24 16:51:32;;;;;;;148.82;91.30;;;;;;;6.33;82.82;97205.03;10255280;28;20041;-56
2022/11/24 16:56:31;;;;;;;134.45;85.22;;;;;;;6.35;83.38;97205.91;10255813;28;20125;-57
2022/11/24 17:01:31;;;;;;;101.10;63.88;;;;;;;6.39;82.78;97210.19;10254972;28;20121;-56
2022/11/24 17:06:32;;;;;;;77.70;52.28;;;;;;;6.43;82.30;97205.09;10248080;28;20570;-56
2022/11/24 17:11:31;;;;;;;76.10;50.78;;;;;;;6.42;82.22;97208.50;10247936;28;20074;-56
2022/11/24 17:16:30;;;;;;;92.75;60.17;;;;;;;6.44;81.35;97217.97;10250547;28;20035;-56
2022/11/24 17:21:30;;;;;;;95.28;62.20;;;;;;;6.42;81.34;97219.66;10251782;28;20080;-56
2022/11/24 17:26:30;;;;;;;100.80;64.43;;;;;;;6.35;80.57;97223.06;10251602;28;20085;-56
2022/11/24 17:31:31;;;;;;;87.40;54.85;;;;;;;6.34;79.73;97227.34;10251701;28;20082;-56
2022/11/24 17:36:32;;;;;;;24.25;16.42;;;;;;;6.27;78.41;97222.16;10251233;28;20074;-56
2022/11/24 17:41:32;;;;;;;48.45;31.40;;;;;;;6.24;78.87;97224.72;10249684;28;20474;-56
2022/11/24 17:46:31;;;;;;;29.83;18.20;;;;;;;6.26;79.36;97215.25;10250390;28;20074;-56
2022/11/24 17:51:30;;;;;;;43.67;25.95;;;;;;;6.34;79.63;97235.09;10251362;28;20092;-57
2022/11/24 17:56:29;;;;;;;34.08;22.42;;;;;;;6.38;79.37;97231.69;10249281;28;20124;-57
2022/11/24 18:01:28;;;;;;;63.60;38.63;;;;;;;6.45;79.43;97234.31;10250286;28;20427;-57
2022/11/24 18:06:27;;;;;;;77.03;48.00;;;;;;;6.50;79.12;97237.78;10248459;28;20077;-57
2022/11/24 18:11:29;;;;;;;63.20;42.50;;;;;;;6.53;77.98;97235.22;10249904;28;20054;-56
2022/11/24 18:16:32;;;;;;;54.75;36.88;;;;;;;6.57;78.00;97234.38;10249444;28;20062;-57
2022/11/24 18:21:31;;;;;;;46.45;33.25;;;;;;;6.61;76.50;97226.69;10249103;28;20074;-56
2022/11/24 18:26:30;;;;;;;48.33;33.92;;;;;;;6.66;75.52;97233.59;10248726;28;20102;-57
2022/11/24 18:31:31;;;;;;;45.05;29.42;;;;;;;6.71;75.39;97234.47;10249268;28;20496;-57
2022/11/24 18:36:30;;;;;;;78.13;52.13;;;;;;;6.70;75.27;97241.34;10249178;28;20080;-57
2022/11/24 18:41:29;;;;;;;;;;;;;;;6.66;75.45;97238.75;10246861;28;20069;-56
2022/11/24 18:46:28;;;;;;;99.38;60.45;;;;;;;6.61;76.84;97244.72;10249950;28;19918;-57
2022/11/24 18:51:27;;;;;;;88.05;55.10;;;;;;;6.54;77.16;97247.28;10248056;28;20069;-57
2022/11/24 18:56:26;;;;;;;76.32;48.35;;;;;;;6.53;76.35;97245.53;10245327;28;20080;-57
2022/11/24 19:01:27;;;;;;;81.13;51.60;;;;;;;6.55;76.23;97249.84;10245283;28;20085;-56
2022/11/24 19:06:32;;;;;;;65.05;42.95;;;;;;;6.58;76.88;97259.31;10247345;28;20071;-56
2022/11/24 19:11:34;;;;;;;48.88;32.50;;;;;;;6.59;76.21;97259.31;10248462;28;20074;-56
2022/11/24 19:16:33;;;;;;;36.53;24.40;;;;;;;6.65;76.70;97261.06;10248431;28;20091;-57
2022/11/24 19:21:36;;;;;;;27.17;19.25;;;;;;;6.65;76.07;97266.22;10248806;28;20088;-57
2022/11/24 19:26:35;;;;;;;30.90;20.90;;;;;;;6.68;76.50;97276.56;10248119;28;20102;-57
2022/11/24 19:31:37;;;;;;;40.83;27.15;;;;;;;6.73;77.14;97266.28;10253017;28;20062;-56
2022/11/24 19:36:36;;;;;;;52.25;37.33;;;;;;;6.73;77.20;97274.88;10256150;28;20093;-56
2022/11/24 19:41:35;;;;;;;77.05;47.30;;;;;;;6.73;77.77;97271.47;10256166;28;20077;-57
2022/11/24 19:46:34;;;;;;;80.03;51.10;;;;;;;6.73;77.42;97281.78;10256113;28;20034;-56
2022/11/24 19:51:35;;;;;;;75.30;48.63;;;;;;;6.71;77.63;97268.84;10256313;28;20046;-57
2022/11/24 19:56:35;;;;;;;49.83;34.45;;;;;;;6.73;77.25;97287.78;10254613;28;20127;-55
2022/11/24 20:01:37;;;;;;;36.53;26.52;;;;;;;6.62;77.10;97281.69;10255518;28;20088;-57
2022/11/24 20:06:39;;;;;;;40.40;30.33;;;;;;;6.59;78.11;97284.25;10255390;28;20073;-57
2022/11/24 20:11:38;;;;;;;61.42;39.65;;;;;;;6.57;78.75;97293.69;10254427;28;20073;-57
2022/11/24 20:16:38;;;;;;;59.00;42.13;;;;;;;6.33;79.94;97287.50;10254658;28;20500;-57
2022/11/24 20:21:37;;;;;;;;;;;;;;;6.20;81.14;97295.97;10255404;28;20757;-56
2022/11/24 20:26:40;;;;;;;82.57;51.47;;;;;;;6.09;82.45;97300.13;10254081;28;19961;-56
2022/11/24 20:31:45;;;;;;;72.18;50.30;;;;;;;6.02;82.78;97299.22;10254136;28;20064;-56
2022/11/24 20:36:45;;;;;;;69.28;47.65;;;;;;;5.97;83.19;97296.59;10254276;28;20467;-57
2022/11/24 20:41:44;;;;;;;94.07;60.25;;;;;;;5.95;83.77;97306.03;10253392;28;20077;-57
2022/11/24 20:46:44;;;;;;;;;;;;;;;5.96;83.49;97314.63;10254350;28;20064;-57
2022/11/24 20:51:45;;;;;;;92.05;63.60;;;;;;;6.03;84.13;97321.56;10253838;28;19953;-57
2022/11/24 20:56:46;;;;;;;107.22;66.93;;;;;;;5.97;84.00;97335.22;10253286;28;20074;-57
2022/11/24 21:01:46;;;;;;;100.95;64.65;;;;;;;5.89;84.48;97326.56;10253567;28;20084;-57
2022/11/24 21:06:46;;;;;;;96.05;59.25;;;;;;;5.90;84.49;97330.00;10252533;28;20085;-57
2022/11/24 21:11:45;;;;;;;76.63;49.08;;;;;;;5.95;84.73;97334.38;10252725;28;20100;-57
2022/11/24 21:16:44;;;;;;;75.03;48.17;;;;;;;6.05;84.32;97331.91;10252694;28;20041;-57
2022/11/24 21:21:43;;;;;;;115.20;68.45;;;;;;;6.10;83.52;97336.22;10267593;28;20054;-57
2022/11/24 21:26:46;;;;;;;164.95;93.20;;;;;;;6.13;83.54;97335.41;10251957;28;20110;-57
2022/11/24 21:31:45;;;;;;;183.90;104.82;;;;;;;6.20;84.03;97342.34;10252391;28;20344;-57
2022/11/24 21:36:44;;;;;;;129.13;77.88;;;;;;;6.25;83.75;97338.06;10251394;28;20262;-56
2022/11/24 21:41:43;;;;;;;;;;;;;;;6.27;83.19;97341.53;10251429;28;20768;-57
2022/11/24 21:46:42;;;;;;;97.50;58.97;;;;;;;6.30;83.78;97340.69;10251539;28;19921;-57
2022/11/24 21:51:41;;;;;;;87.10;55.35;;;;;;;6.30;83.32;97333.81;10251709;28;20078;-58
2022/11/24 21:56:40;;;;;;;92.97;56.00;;;;;;;6.30;83.74;97338.97;10249821;28;20030;-59
2022/11/24 22:01:39;;;;;;;97.22;60.17;;;;;;;6.32;83.22;97341.56;10250697;28;20129;-58
2022/11/24 22:06:38;;;;;;;99.68;61.20;;;;;;;6.34;83.15;97345.91;10251408;28;20521;-59
2022/11/24 22:11:37;;;;;;;73.65;49.55;;;;;;;6.34;82.43;97348.47;10250963;28;20096;-59
2022/11/24 22:16:36;;;;;;;112.78;70.85;;;;;;;6.31;83.25;97342.44;10250827;28;20049;-60
2022/11/24 22:21:35;;;;;;;101.32;65.15;;;;;;;6.31;83.23;97356.19;10250344;28;20085;-56
2022/11/24 22:26:34;;;;;;;102.40;65.45;;;;;;;6.28;82.56;97356.16;10250073;28;20118;-57
2022/11/24 22:31:33;;;;;;;83.05;52.13;;;;;;;6.04;83.69;97358.47;10249677;28;20101;-57
2022/11/24 22:36:32;;;;;;;63.47;41.60;;;;;;;5.94;84.01;97363.53;10249246;28;20052;-57
2022/11/24 22:41:33;;;;;;;64.13;42.65;;;;;;;5.91;84.65;97360.06;10249224;28;20073;-57
2022/11/24 22:46:32;;;;;;;50.83;35.33;;;;;;;5.77;84.93;97367.63;10249149;28;20070;-57
2022/11/24 22:51:33;;;;;;;57.88;40.92;;;;;;;5.74;84.82;97370.16;10249699;28;20455;-57
2022/11/24 22:56:32;;;;;;;53.78;37.65;;;;;;;5.78;84.16;97373.66;10220139;28;20069;-57
2022/11/24 23:01:35;;;;;;;48.78;35.58;;;;;;;5.84;83.99;97390.03;10208849;28;20563;-57
2022/11/24 23:06:34;;;;;;;40.80;29.45;;;;;;;5.92;84.47;97392.69;10205897;28;20134;-57
2022/11/24 23:11:36;;;;;;;29.67;21.48;;;;;;;5.92;83.30;97390.13;10205411;28;20093;-57
2022/11/24 23:16:35;;;;;;;36.17;24.17;;;;;;;5.94;83.10;97393.56;10206225;28;20386;-57
2022/11/24 23:21:37;;;;;;;35.83;24.83;;;;;;;6.04;83.37;97394.53;10207831;28;20657;-57